WetterOnline ( http://www.wetteronline.de )

Wetter aktuell Döttesfeld

Aktuelles Wetter: Andernach (75m)

6-stündlich | Neueste Meldungen
Ortszeit Temperatur Wetter
So, 22.07. 8:00 19.2° C bedeckt
So, 22.07. 2:00 17.2° C bedeckt
Sa, 21.07. 20:00 23.3° C bewölkt
Sa, 21.07. 14:00 26.4° C wolkig
Sa, 21.07. 8:00 18.9° C bedeckt
Sa, 21.07. 2:00 20.8° C wolkig
Fr, 20.07. 20:00 26.1° C wolkig
Fr, 20.07. 14:00 30.0° C wolkig
Ortszeit Temperatur Wetter
So, 22.07. 12:30 24.7° C leicht bewölkt
So, 22.07. 12:10 24.5° C bedeckt
So, 22.07. 12:00 23.8° C leicht bewölkt
So, 22.07. 11:50 23.8° C leicht bewölkt
So, 22.07. 11:40 23.5° C bedeckt
So, 22.07. 11:30 22.4° C wolkig
So, 22.07. 11:00 21.4° C wolkig
So, 22.07. 10:30 20.9° C bewölkt
So, 22.07. 10:00 20.3° C wolkig
So, 22.07. 9:30 19.5° C bewölkt
Ortszeit Relative Feuchte Sichtweite
So, 22.07. 8:00 66% 40 km
So, 22.07. 2:00 90% 22 km
Sa, 21.07. 20:00 60% 45 km
Sa, 21.07. 14:00 42% 40 km
Sa, 21.07. 8:00 69% 35 km
Sa, 21.07. 2:00 66% 45 km
Fr, 20.07. 20:00 43% 40 km
Fr, 20.07. 14:00 26% 65 km
Ortszeit Relative Feuchte Sichtweite
So, 22.07. 12:30 49% 35 km
So, 22.07. 12:10 50% -
So, 22.07. 12:00 54% 30 km
So, 22.07. 11:50 54% -
So, 22.07. 11:40 54% -
So, 22.07. 11:30 56% 30 km
So, 22.07. 11:00 60% 30 km
So, 22.07. 10:30 61% 35 km
So, 22.07. 10:00 63% 35 km
So, 22.07. 9:30 66% 40 km
Ortszeit Niederschlagsmenge Niederschlagsart
So, 22.07. 8:00 0.0 l/m2 in 12 Std. -
So, 22.07. 2:00 0.0 l/m2 in 6 Std. -
Sa, 21.07. 20:00 0.1 l/m2 in 12 Std. Regen
Sa, 21.07. 14:00 0.1 l/m2 in 6 Std. Regen
Sa, 21.07. 8:00 0.0 l/m2 in 12 Std. -
Sa, 21.07. 2:00 0.0 l/m2 in 6 Std. -
Fr, 20.07. 20:00 0.1 l/m2 in 12 Std. Regen
Fr, 20.07. 14:00 0.0 l/m2 in 6 Std. -
Ortszeit Niederschlagsmenge Niederschlagsart
So, 22.07. 12:30 0.0 l/m2 in 1 Std. -
So, 22.07. 12:10 keine Meldung -
So, 22.07. 12:00 0.0 l/m2 in 1 Std. -
So, 22.07. 11:50 keine Meldung -
So, 22.07. 11:40 keine Meldung -
So, 22.07. 11:30 0.0 l/m2 in 1 Std. -
So, 22.07. 11:00 0.0 l/m2 in 1 Std. -
So, 22.07. 10:30 0.0 l/m2 in 1 Std. -
So, 22.07. 10:00 0.0 l/m2 in 1 Std. -
So, 22.07. 9:30 0.0 l/m2 in 1 Std. -
Ortszeit Stärke Spitze Richtung
km/h Bft. km/h Grad Sektor
So, 22.07. 8:00 9 2 17 310° NW
So, 22.07. 2:00 6 1 15 200° S
Sa, 21.07. 20:00 7 2 32 200° S
Sa, 21.07. 14:00 11 2 18 130° SO
Sa, 21.07. 8:00 0 0 4 - -
Sa, 21.07. 2:00 7 2 36 320° NW
Fr, 20.07. 20:00 14 3 36 320° NW
Fr, 20.07. 14:00 11 2 25 80° O
Ortszeit Stärke Spitze Richtung
km/h Bft. km/h Grad Sektor
So, 22.07. 12:30 14 3 25 320° NW
So, 22.07. 12:10 11 2 - 320° NW
So, 22.07. 12:00 11 2 20 340° N
So, 22.07. 11:50 11 2 - 340° N
So, 22.07. 11:40 13 3 - 340° N
So, 22.07. 11:30 11 2 22 320° NW
So, 22.07. 11:00 14 3 22 320° NW
So, 22.07. 10:30 11 2 22 320° NW
So, 22.07. 10:00 14 3 25 330° NW
So, 22.07. 9:30 11 2 25 350° N
Ortszeit Untergrenze Bedeckung Gattung
total tief tief mittel hoch
So, 22.07. 8:00 1800 m 8/8 8/8 - - -
So, 22.07. 2:00 3900 m 8/8 8/8 - - -
Sa, 21.07. 20:00 1500 m 8/8 4/8 - - -
Sa, 21.07. 14:00 3600 m 7/8 5/8 - - -
Sa, 21.07. 8:00 3000 m 8/8 8/8 - - -
Sa, 21.07. 2:00 8100 m 8/8 0/8 - - -
Fr, 20.07. 20:00 1800 m 8/8 1/8 - - -
Fr, 20.07. 14:00 2700 m 5/8 5/8 - - -
Ortszeit Bedeckungsgrad in Achtel und Wolkenuntergrenze
So, 22.07. 12:30 1(2700m)
So, 22.07. 12:10 9 9 9
So, 22.07. 12:00 2(2700m) 4(3600m)
So, 22.07. 11:50 2(2700m) 4(3600m)
So, 22.07. 11:40 9 9 9
So, 22.07. 11:30 6(3600m) 7(3600m)
So, 22.07. 11:00 7(3300m) 7(4200m) 9
So, 22.07. 10:30 7(3300m) 7(4200m)
So, 22.07. 10:00 3(1800m) 4(3000m) 8(4200m)
So, 22.07. 9:30 7(1800m) 8(3000m) 8(3900m)
Ortszeit Luftdruck NN (hPa) Tendenz (hPa in 3 Std.)
So, 22.07. 8:00 1014 + 0,9
So, 22.07. 2:00 1013 + 0,5
Sa, 21.07. 20:00 1012 + 0,6
Sa, 21.07. 14:00 1011 + 0,3
Sa, 21.07. 8:00 1011 + 1,0
Sa, 21.07. 2:00 1010 - 0,5
Fr, 20.07. 20:00 1010 - 0,3
Fr, 20.07. 14:00 1012 - 1,8
Ortszeit Luftdruck NN (hPa) Tendenz (hPa in 3 Std.)
So, 22.07. 12:30 1015 0,0
So, 22.07. 12:10 1015 keine Meldung
So, 22.07. 12:00 1015 + 0,3
So, 22.07. 11:50 1015 keine Meldung
So, 22.07. 11:40 1015 keine Meldung
So, 22.07. 11:30 1015 + 0,4
So, 22.07. 11:00 1015 + 0,7
So, 22.07. 10:30 1015 + 0,9
So, 22.07. 10:00 1015 + 1,1
So, 22.07. 9:30 1015 + 1,2
Ortszeit Schneehöhe (cm)
So, 22.07. 8:00 -
So, 22.07. 2:00 -
Sa, 21.07. 20:00 -
Sa, 21.07. 14:00 -
Sa, 21.07. 8:00 -
Sa, 21.07. 2:00 -
Fr, 20.07. 20:00 -
Fr, 20.07. 14:00 -
Ortszeit Schneehöhe (cm)
So, 22.07. 12:30 -
So, 22.07. 12:10 -
So, 22.07. 12:00 -
So, 22.07. 11:50 -
So, 22.07. 11:40 -
So, 22.07. 11:30 -
So, 22.07. 11:00 -
So, 22.07. 10:30 -
So, 22.07. 10:00 -
So, 22.07. 9:30 -
Link zu dieser Seite / Seite empfehlen

Das Wetter in ...